Darton, United Kingdom
Current Conditions -  °F | °C
As of 8:20 PM on Monday 26 Jan 2015 (Local Time) from EGNM Reporting Station
Clear Clear  
Wind Chill: -3°   Ceiling: Unl
Heat Index:   Visibility: 6mi
Dew Point:   Wind: 20mph
Humidity: 93%   Direction: 280°W
Pressure: 30.24"   Gusts: NA
Location:  53.59°N, 1.53°W
Report Text: EGNM 262020Z 28017KT CAVOK 03/02 Q1024
Loading
Personal Weather Stations






























Interactive Weather Map New forecast layout! Learn more

10-Day Weather Forecast

Advertisements
Track Severe Weather on mobile